createdAt,value
2023-02-15T00:04:49.804Z,6.37
2023-02-15T00:09:53.213Z,6.36
2023-02-15T00:14:56.540Z,6.36
2023-02-15T00:19:59.869Z,6.34
2023-02-15T00:25:03.228Z,6.30
2023-02-15T00:30:07.478Z,6.28
2023-02-15T00:35:10.991Z,6.32
2023-02-15T00:40:15.146Z,6.30
2023-02-15T00:45:19.486Z,6.27
2023-02-15T00:50:23.947Z,6.18
2023-02-15T00:55:27.966Z,6.18
2023-02-15T01:00:33.709Z,6.19
2023-02-15T01:05:37.424Z,6.20
2023-02-15T01:10:40.942Z,6.19
2023-02-15T01:15:46.819Z,6.15
2023-02-15T01:20:51.270Z,6.12
2023-02-15T01:25:54.677Z,6.10
2023-02-15T01:30:58.274Z,6.11
2023-02-15T01:36:02.244Z,6.10
2023-02-15T01:41:21.445Z,6.09
2023-02-15T01:46:45.590Z,6.08
2023-02-15T01:51:52.457Z,6.10
2023-02-15T01:57:04.022Z,6.09
2023-02-15T02:02:11.069Z,6.08
2023-02-15T02:07:17.498Z,6.10
2023-02-15T02:12:23.038Z,6.08
2023-02-15T02:17:40.887Z,6.07
2023-02-15T02:23:22.169Z,6.07
2023-02-15T02:28:59.322Z,6.04
2023-02-15T02:34:10.933Z,6.01
2023-02-15T02:39:14.980Z,6.00
2023-02-15T02:44:24.267Z,6.00
2023-02-15T02:49:37.977Z,5.97
2023-02-15T02:54:41.379Z,6.01
2023-02-15T02:59:48.014Z,5.98
2023-02-15T03:04:59.600Z,5.93
2023-02-15T03:10:06.199Z,5.90
2023-02-15T03:15:20.532Z,5.89
2023-02-15T03:20:29.092Z,5.88
2023-02-15T03:25:41.036Z,5.88
2023-02-15T03:30:49.159Z,5.85
2023-02-15T03:36:01.044Z,5.86
2023-02-15T03:41:12.046Z,5.88
2023-02-15T03:46:29.285Z,5.86
2023-02-15T03:51:39.234Z,5.86
2023-02-15T03:57:03.664Z,5.87
2023-02-15T04:02:22.945Z,5.86
2023-02-15T04:07:26.224Z,5.89
2023-02-15T04:12:29.432Z,5.94
2023-02-15T04:17:32.795Z,5.99
2023-02-15T04:22:55.201Z,6.02
2023-02-15T04:27:58.614Z,5.97
2023-02-15T04:33:02.097Z,5.96
2023-02-15T04:38:05.551Z,5.97
2023-02-15T04:43:08.945Z,5.96
2023-02-15T04:48:12.580Z,5.92
2023-02-15T04:53:18.749Z,5.84
2023-02-15T04:58:22.235Z,5.75
2023-02-15T05:03:26.172Z,5.73
2023-02-15T05:08:29.565Z,5.66
2023-02-15T05:13:33.324Z,5.72
2023-02-15T05:18:36.886Z,5.78
2023-02-15T05:23:40.405Z,5.79
2023-02-15T05:28:44.538Z,5.79
2023-02-15T05:33:48.120Z,5.69
2023-02-15T05:38:51.837Z,5.60
2023-02-15T05:43:57.914Z,5.61
2023-02-15T05:49:01.888Z,5.68
2023-02-15T05:54:05.217Z,5.80
2023-02-15T05:59:09.102Z,5.85
2023-02-15T06:04:13.860Z,5.85
2023-02-15T06:09:19.491Z,5.93
2023-02-15T06:14:23.451Z,5.89
2023-02-15T06:19:26.898Z,5.85
2023-02-15T06:24:30.389Z,5.84
2023-02-15T06:29:33.693Z,5.74
2023-02-15T06:34:37.053Z,5.70
2023-02-15T06:39:40.594Z,5.76
2023-02-15T06:44:43.940Z,5.77
2023-02-15T06:49:47.401Z,5.75
2023-02-15T06:54:51.631Z,5.77
2023-02-15T06:59:55.342Z,5.76
2023-02-15T07:04:59.190Z,5.70
2023-02-15T07:10:03.289Z,5.68
2023-02-15T07:15:07.798Z,5.75
2023-02-15T07:20:14.855Z,5.74
2023-02-15T07:25:18.668Z,5.78
2023-02-15T07:30:22.095Z,5.71
2023-02-15T07:35:26.246Z,5.73
2023-02-15T07:40:29.972Z,5.75
2023-02-15T07:45:33.429Z,5.79
2023-02-15T07:50:36.750Z,5.84
2023-02-15T07:55:40.294Z,5.88
2023-02-15T08:00:59.063Z,6.00
2023-02-15T08:06:05.863Z,6.03
2023-02-15T08:11:34.877Z,6.08
2023-02-15T08:16:42.134Z,6.11
2023-02-15T08:21:51.600Z,6.11
2023-02-15T08:26:56.333Z,6.09
2023-02-15T08:32:04.636Z,6.15
2023-02-15T08:37:08.976Z,6.26
2023-02-15T08:42:14.687Z,6.31
2023-02-15T08:47:19.546Z,6.31
2023-02-15T08:52:24.387Z,6.31
2023-02-15T08:57:29.334Z,6.37
2023-02-15T09:02:33.784Z,6.36
2023-02-15T09:07:38.588Z,6.47
2023-02-15T09:12:42.979Z,6.56
2023-02-15T09:17:47.130Z,6.59
2023-02-15T09:22:58.128Z,6.64
2023-02-15T09:28:04.111Z,6.73
2023-02-15T09:33:07.530Z,6.77
2023-02-15T09:38:13.303Z,6.91
2023-02-15T09:43:35.702Z,7.03
2023-02-15T09:48:50.039Z,7.07
2023-02-15T09:54:12.374Z,7.14
2023-02-15T09:59:34.138Z,7.13
2023-02-15T10:05:05.659Z,7.22
2023-02-15T10:10:53.769Z,7.30
2023-02-15T10:16:07.126Z,7.50
2023-02-15T10:21:25.995Z,7.69
2023-02-15T10:26:42.378Z,7.85
2023-02-15T10:31:55.547Z,8.02
2023-02-15T10:37:27.348Z,8.20
2023-02-15T10:42:53.593Z,8.45
2023-02-15T10:48:15.530Z,8.75
2023-02-15T10:53:21.977Z,9.05
2023-02-15T10:58:56.981Z,9.31
2023-02-15T11:04:37.745Z,9.57
2023-02-15T11:09:49.588Z,9.76
2023-02-15T11:15:20.977Z,9.89
2023-02-15T11:20:34.348Z,10.05
2023-02-15T11:25:38.124Z,10.15
2023-02-15T11:30:47.203Z,10.19
2023-02-15T11:35:53.962Z,10.16
2023-02-15T11:41:04.012Z,10.22
2023-02-15T11:46:12.490Z,10.34
2023-02-15T11:51:19.029Z,10.47
2023-02-15T11:56:27.372Z,10.56
2023-02-15T12:01:41.405Z,10.75
2023-02-15T12:07:03.319Z,10.93
2023-02-15T12:12:28.240Z,11.15
2023-02-15T12:17:35.953Z,11.39
2023-02-15T12:22:40.389Z,11.72
2023-02-15T12:27:44.574Z,11.99
2023-02-15T12:33:06.464Z,12.04
2023-02-15T12:38:12.462Z,12.09
2023-02-15T12:43:35.660Z,12.13
2023-02-15T12:48:40.719Z,12.18
2023-02-15T12:53:45.299Z,12.21
2023-02-15T12:58:48.856Z,12.24
2023-02-15T13:04:15.313Z,12.29
2023-02-15T13:09:33.370Z,12.37
2023-02-15T13:14:37.469Z,12.42
2023-02-15T13:19:46.091Z,12.52
2023-02-15T13:25:00.490Z,12.64
2023-02-15T13:30:16.426Z,12.77
2023-02-15T13:35:20.334Z,12.86
2023-02-15T13:40:32.561Z,12.95
2023-02-15T13:46:31.188Z,12.96
2023-02-15T13:51:55.323Z,12.88
2023-02-15T13:57:20.473Z,12.74
2023-02-15T14:02:36.686Z,12.54
2023-02-15T14:07:42.602Z,12.26
2023-02-15T14:13:20.593Z,12.01
2023-02-15T14:18:36.908Z,11.75
2023-02-15T14:23:59.714Z,11.57
2023-02-15T14:29:21.796Z,12.09
2023-02-15T14:34:46.072Z,11.80
2023-02-15T14:40:22.813Z,11.43
2023-02-15T14:45:54.198Z,11.32
2023-02-15T14:50:57.665Z,12.02
2023-02-15T14:56:20.625Z,11.59
2023-02-15T15:01:28.220Z,11.23
2023-02-15T15:06:34.163Z,10.97
2023-02-15T15:11:46.599Z,10.76
2023-02-15T15:16:52.224Z,10.55
2023-02-15T15:21:57.735Z,10.40
2023-02-15T15:27:27.297Z,10.26
2023-02-15T15:32:35.065Z,10.10
2023-02-15T15:37:47.522Z,9.95
2023-02-15T15:42:51.626Z,9.81
2023-02-15T15:48:30.317Z,9.69
2023-02-15T15:53:43.464Z,9.57
2023-02-15T15:58:53.528Z,9.43
2023-02-15T16:03:59.570Z,9.32
2023-02-15T16:09:27.408Z,9.19
2023-02-15T16:14:36.518Z,9.05
2023-02-15T16:19:42.962Z,8.95
2023-02-15T16:25:01.978Z,8.85
2023-02-15T16:30:36.656Z,8.74
2023-02-15T16:43:43.598Z,8.45
2023-02-15T16:48:52.671Z,8.34
2023-02-15T16:54:02.293Z,8.24
2023-02-15T17:00:44.696Z,8.15
2023-02-15T17:05:55.012Z,8.04
2023-02-15T17:11:14.640Z,7.94
2023-02-15T18:07:45.036Z,6.73
2023-02-15T19:12:53.279Z,5.97
2023-02-15T19:17:56.733Z,5.91
2023-02-15T19:23:02.074Z,5.84
2023-02-15T19:28:37.943Z,5.81
2023-02-15T19:33:46.293Z,5.74
2023-02-15T20:52:59.263Z,4.44
2023-02-15T21:04:48.068Z,4.20
2023-02-15T21:10:02.775Z,4.19
2023-02-15T21:16:29.260Z,4.24
2023-02-15T21:22:22.072Z,4.35
2023-02-15T21:28:30.796Z,4.38
2023-02-15T21:34:22.138Z,4.38
2023-02-15T21:40:06.400Z,4.34
2023-02-15T21:45:56.465Z,4.25
2023-02-15T21:52:09.574Z,4.21
2023-02-15T21:58:10.111Z,4.28
2023-02-15T22:10:02.352Z,4.56
2023-02-15T22:16:17.778Z,4.63
2023-02-15T22:28:52.778Z,4.69
2023-02-15T22:35:25.663Z,4.78
2023-02-15T22:41:38.722Z,4.89
2023-02-15T22:46:56.770Z,4.95
2023-02-15T22:53:28.814Z,4.92
2023-02-15T22:59:14.738Z,4.88
2023-02-15T23:05:13.538Z,4.83
2023-02-15T23:10:46.770Z,4.73
2023-02-15T23:16:54.282Z,4.65
2023-02-15T23:23:13.061Z,4.59
2023-02-15T23:29:03.750Z,4.54
2023-02-15T23:35:11.741Z,4.50
2023-02-15T23:41:24.495Z,4.46
2023-02-15T23:47:17.871Z,4.41
2023-02-15T23:53:39.898Z,4.39
2023-02-15T23:59:23.350Z,4.41
